sensor_id;sensor_type;location;lat;lon;timestamp;P1;durP1;ratioP1;P2;durP2;ratioP2
46463;SDS011;32161;48.148;-1.554;2022-08-01T00:02:23;5.13;;;2.13;;
46463;SDS011;32161;48.148;-1.554;2022-08-01T00:04:53;2.97;;;1.88;;
46463;SDS011;32161;48.148;-1.554;2022-08-01T00:07:22;5.32;;;1.92;;
46463;SDS011;32161;48.148;-1.554;2022-08-01T00:09:49;2.67;;;1.60;;
46463;SDS011;32161;48.148;-1.554;2022-08-01T00:12:17;1.88;;;1.60;;
46463;SDS011;32161;48.148;-1.554;2022-08-01T00:14:44;1.98;;;1.30;;
46463;SDS011;32161;48.148;-1.554;2022-08-01T00:17:12;4.72;;;2.10;;
46463;SDS011;32161;48.148;-1.554;2022-08-01T00:19:40;4.80;;;1.80;;
46463;SDS011;32161;48.148;-1.554;2022-08-01T00:22:08;2.85;;;1.52;;
46463;SDS011;32161;48.148;-1.554;2022-08-01T00:24:37;2.22;;;1.67;;
46463;SDS011;32161;48.148;-1.554;2022-08-01T00:27:04;2.95;;;1.50;;
46463;SDS011;32161;48.148;-1.554;2022-08-01T00:29:32;3.47;;;1.60;;
46463;SDS011;32161;48.148;-1.554;2022-08-01T00:31:59;1.95;;;1.40;;
46463;SDS011;32161;48.148;-1.554;2022-08-01T00:34:27;5.30;;;1.65;;
46463;SDS011;32161;48.148;-1.554;2022-08-01T00:36:54;3.58;;;1.88;;
46463;SDS011;32161;48.148;-1.554;2022-08-01T00:39:22;2.33;;;1.50;;
46463;SDS011;32161;48.148;-1.554;2022-08-01T00:41:51;4.35;;;1.75;;
46463;SDS011;32161;48.148;-1.554;2022-08-01T00:44:19;3.50;;;1.70;;
46463;SDS011;32161;48.148;-1.554;2022-08-01T00:46:46;4.32;;;2.58;;
46463;SDS011;32161;48.148;-1.554;2022-08-01T00:49:14;3.38;;;1.75;;
46463;SDS011;32161;48.148;-1.554;2022-08-01T00:51:41;2.40;;;1.50;;
46463;SDS011;32161;48.148;-1.554;2022-08-01T00:54:09;1.98;;;1.70;;
46463;SDS011;32161;48.148;-1.554;2022-08-01T00:56:37;2.40;;;1.80;;
46463;SDS011;32161;48.148;-1.554;2022-08-01T00:59:06;2.38;;;1.60;;
46463;SDS011;32161;48.148;-1.554;2022-08-01T01:01:35;5.22;;;1.67;;
46463;SDS011;32161;48.148;-1.554;2022-08-01T01:04:02;3.25;;;1.88;;
46463;SDS011;32161;48.148;-1.554;2022-08-01T01:06:33;5.15;;;1.75;;
46463;SDS011;32161;48.148;-1.554;2022-08-01T01:09:29;3.20;;;1.52;;
46463;SDS011;32161;48.148;-1.554;2022-08-01T01:12:13;1.67;;;1.30;;
46463;SDS011;32161;48.148;-1.554;2022-08-01T01:14:50;3.65;;;1.70;;
46463;SDS011;32161;48.148;-1.554;2022-08-01T01:17:27;3.60;;;1.75;;
46463;SDS011;32161;48.148;-1.554;2022-08-01T01:19:59;3.22;;;1.90;;
46463;SDS011;32161;48.148;-1.554;2022-08-01T01:22:36;1.52;;;1.42;;
46463;SDS011;32161;48.148;-1.554;2022-08-01T01:28:20;2.42;;;1.70;;
46463;SDS011;32161;48.148;-1.554;2022-08-01T01:31:01;4.57;;;1.38;;
46463;SDS011;32161;48.148;-1.554;2022-08-01T01:33:33;4.60;;;1.63;;
46463;SDS011;32161;48.148;-1.554;2022-08-01T01:36:03;4.53;;;1.90;;
46463;SDS011;32161;48.148;-1.554;2022-08-01T01:38:36;2.60;;;1.45;;
46463;SDS011;32161;48.148;-1.554;2022-08-01T01:41:08;3.20;;;1.48;;
46463;SDS011;32161;48.148;-1.554;2022-08-01T01:43:38;3.75;;;2.00;;
46463;SDS011;32161;48.148;-1.554;2022-08-01T01:46:09;2.47;;;1.60;;
46463;SDS011;32161;48.148;-1.554;2022-08-01T01:48:38;2.35;;;1.92;;
46463;SDS011;32161;48.148;-1.554;2022-08-01T01:51:10;2.15;;;1.75;;
46463;SDS011;32161;48.148;-1.554;2022-08-01T01:53:41;2.33;;;1.70;;
46463;SDS011;32161;48.148;-1.554;2022-08-01T01:58:41;2.60;;;1.30;;
46463;SDS011;32161;48.148;-1.554;2022-08-01T02:01:11;1.38;;;1.27;;
46463;SDS011;32161;48.148;-1.554;2022-08-01T02:03:40;1.20;;;1.20;;
46463;SDS011;32161;48.148;-1.554;2022-08-01T02:06:10;1.85;;;1.08;;
46463;SDS011;32161;48.148;-1.554;2022-08-01T02:11:08;1.98;;;1.20;;
46463;SDS011;32161;48.148;-1.554;2022-08-01T02:13:46;2.22;;;1.20;;
46463;SDS011;32161;48.148;-1.554;2022-08-01T02:16:21;1.50;;;1.20;;
46463;SDS011;32161;48.148;-1.554;2022-08-01T02:18:53;1.88;;;1.30;;
46463;SDS011;32161;48.148;-1.554;2022-08-01T02:21:23;1.30;;;1.20;;
46463;SDS011;32161;48.148;-1.554;2022-08-01T02:23:58;1.85;;;1.20;;
46463;SDS011;32161;48.148;-1.554;2022-08-01T02:26:40;1.55;;;0.98;;
46463;SDS011;32161;48.148;-1.554;2022-08-01T02:29:15;1.20;;;1.10;;
46463;SDS011;32161;48.148;-1.554;2022-08-01T02:31:50;2.25;;;1.33;;
46463;SDS011;32161;48.148;-1.554;2022-08-01T02:34:20;2.05;;;1.35;;
46463;SDS011;32161;48.148;-1.554;2022-08-01T02:36:51;1.52;;;1.20;;
46463;SDS011;32161;48.148;-1.554;2022-08-01T02:39:21;1.95;;;1.10;;
46463;SDS011;32161;48.148;-1.554;2022-08-01T02:41:53;1.17;;;1.15;;
46463;SDS011;32161;48.148;-1.554;2022-08-01T02:44:28;1.55;;;1.45;;
46463;SDS011;32161;48.148;-1.554;2022-08-01T02:47:03;1.75;;;0.95;;
46463;SDS011;32161;48.148;-1.554;2022-08-01T02:49:31;1.08;;;0.82;;
46463;SDS011;32161;48.148;-1.554;2022-08-01T02:52:04;2.15;;;0.77;;
46463;SDS011;32161;48.148;-1.554;2022-08-01T02:54:34;1.15;;;1.05;;
46463;SDS011;32161;48.148;-1.554;2022-08-01T02:57:04;1.38;;;0.80;;
46463;SDS011;32161;48.148;-1.554;2022-08-01T02:59:35;0.80;;;0.80;;
46463;SDS011;32161;48.148;-1.554;2022-08-01T03:02:06;1.55;;;0.98;;
46463;SDS011;32161;48.148;-1.554;2022-08-01T03:04:35;1.70;;;1.45;;
46463;SDS011;32161;48.148;-1.554;2022-08-01T03:07:07;0.77;;;0.77;;
46463;SDS011;32161;48.148;-1.554;2022-08-01T03:09:38;0.98;;;0.88;;
46463;SDS011;32161;48.148;-1.554;2022-08-01T03:12:11;0.80;;;0.80;;
46463;SDS011;32161;48.148;-1.554;2022-08-01T03:14:42;0.80;;;0.80;;
46463;SDS011;32161;48.148;-1.554;2022-08-01T03:17:13;1.45;;;0.70;;
46463;SDS011;32161;48.148;-1.554;2022-08-01T03:19:43;1.02;;;0.65;;
46463;SDS011;32161;48.148;-1.554;2022-08-01T03:22:12;0.75;;;0.60;;
46463;SDS011;32161;48.148;-1.554;2022-08-01T03:24:42;1.30;;;0.88;;
46463;SDS011;32161;48.148;-1.554;2022-08-01T03:27:14;0.80;;;0.80;;
46463;SDS011;32161;48.148;-1.554;2022-08-01T03:29:44;0.47;;;0.43;;
46463;SDS011;32161;48.148;-1.554;2022-08-01T03:32:14;0.60;;;0.60;;
46463;SDS011;32161;48.148;-1.554;2022-08-01T03:34:43;1.10;;;0.60;;
46463;SDS011;32161;48.148;-1.554;2022-08-01T03:37:12;0.77;;;0.65;;
46463;SDS011;32161;48.148;-1.554;2022-08-01T03:39:50;0.45;;;0.45;;
46463;SDS011;32161;48.148;-1.554;2022-08-01T03:42:24;0.45;;;0.45;;
46463;SDS011;32161;48.148;-1.554;2022-08-01T03:45:02;0.50;;;0.50;;
46463;SDS011;32161;48.148;-1.554;2022-08-01T03:47:35;0.40;;;0.40;;
46463;SDS011;32161;48.148;-1.554;2022-08-01T03:50:04;0.50;;;0.50;;
46463;SDS011;32161;48.148;-1.554;2022-08-01T03:55:05;0.40;;;0.40;;
46463;SDS011;32161;48.148;-1.554;2022-08-01T03:57:34;0.30;;;0.30;;
46463;SDS011;32161;48.148;-1.554;2022-08-01T04:00:03;0.95;;;0.50;;
46463;SDS011;32161;48.148;-1.554;2022-08-01T04:02:33;0.65;;;0.65;;
46463;SDS011;32161;48.148;-1.554;2022-08-01T04:05:04;0.50;;;0.50;;
46463;SDS011;32161;48.148;-1.554;2022-08-01T04:07:33;0.40;;;0.40;;
46463;SDS011;32161;48.148;-1.554;2022-08-01T04:10:02;0.90;;;0.90;;
46463;SDS011;32161;48.148;-1.554;2022-08-01T04:12:31;0.52;;;0.50;;
46463;SDS011;32161;48.148;-1.554;2022-08-01T04:15:00;0.50;;;0.50;;
46463;SDS011;32161;48.148;-1.554;2022-08-01T04:17:28;0.60;;;0.50;;
46463;SDS011;32161;48.148;-1.554;2022-08-01T04:19:56;0.55;;;0.55;;
46463;SDS011;32161;48.148;-1.554;2022-08-01T04:22:24;0.52;;;0.52;;
46463;SDS011;32161;48.148;-1.554;2022-08-01T04:24:53;0.57;;;0.52;;
46463;SDS011;32161;48.148;-1.554;2022-08-01T04:27:24;0.60;;;0.60;;
46463;SDS011;32161;48.148;-1.554;2022-08-01T04:29:57;0.50;;;0.30;;
46463;SDS011;32161;48.148;-1.554;2022-08-01T04:32:27;0.40;;;0.40;;
46463;SDS011;32161;48.148;-1.554;2022-08-01T04:35:01;0.40;;;0.40;;
46463;SDS011;32161;48.148;-1.554;2022-08-01T04:37:32;0.90;;;0.50;;
46463;SDS011;32161;48.148;-1.554;2022-08-01T04:40:03;0.30;;;0.30;;
46463;SDS011;32161;48.148;-1.554;2022-08-01T04:42:33;3.53;;;0.40;;
46463;SDS011;32161;48.148;-1.554;2022-08-01T04:45:00;0.40;;;0.40;;
46463;SDS011;32161;48.148;-1.554;2022-08-01T04:47:28;0.98;;;0.32;;
46463;SDS011;32161;48.148;-1.554;2022-08-01T04:49:57;0.40;;;0.40;;
46463;SDS011;32161;48.148;-1.554;2022-08-01T04:52:33;0.57;;;0.45;;
46463;SDS011;32161;48.148;-1.554;2022-08-01T04:55:01;1.35;;;0.43;;
46463;SDS011;32161;48.148;-1.554;2022-08-01T04:57:31;0.32;;;0.32;;
46463;SDS011;32161;48.148;-1.554;2022-08-01T05:00:01;0.50;;;0.50;;
46463;SDS011;32161;48.148;-1.554;2022-08-01T05:02:31;0.68;;;0.60;;
46463;SDS011;32161;48.148;-1.554;2022-08-01T05:04:59;0.50;;;0.50;;
46463;SDS011;32161;48.148;-1.554;2022-08-01T05:07:27;0.30;;;0.30;;
46463;SDS011;32161;48.148;-1.554;2022-08-01T05:09:56;0.25;;;0.25;;
46463;SDS011;32161;48.148;-1.554;2022-08-01T05:12:23;0.73;;;0.35;;
46463;SDS011;32161;48.148;-1.554;2022-08-01T05:14:51;0.55;;;0.32;;
46463;SDS011;32161;48.148;-1.554;2022-08-01T05:17:19;0.40;;;0.40;;
46463;SDS011;32161;48.148;-1.554;2022-08-01T05:19:46;1.33;;;0.40;;
46463;SDS011;32161;48.148;-1.554;2022-08-01T05:22:14;0.32;;;0.22;;
46463;SDS011;32161;48.148;-1.554;2022-08-01T05:24:42;0.30;;;0.30;;
46463;SDS011;32161;48.148;-1.554;2022-08-01T05:27:11;0.95;;;0.50;;
46463;SDS011;32161;48.148;-1.554;2022-08-01T05:29:38;1.55;;;0.35;;
46463;SDS011;32161;48.148;-1.554;2022-08-01T05:32:06;0.40;;;0.40;;
46463;SDS011;32161;48.148;-1.554;2022-08-01T05:34:34;0.68;;;0.68;;
46463;SDS011;32161;48.148;-1.554;2022-08-01T05:37:02;1.13;;;0.45;;
46463;SDS011;32161;48.148;-1.554;2022-08-01T05:39:29;1.58;;;0.70;;
46463;SDS011;32161;48.148;-1.554;2022-08-01T05:41:57;1.20;;;0.40;;
46463;SDS011;32161;48.148;-1.554;2022-08-01T05:44:26;0.55;;;0.55;;
46463;SDS011;32161;48.148;-1.554;2022-08-01T05:46:54;0.50;;;0.50;;
46463;SDS011;32161;48.148;-1.554;2022-08-01T05:49:21;1.85;;;0.68;;
46463;SDS011;32161;48.148;-1.554;2022-08-01T05:51:49;0.40;;;0.40;;
46463;SDS011;32161;48.148;-1.554;2022-08-01T05:54:17;0.60;;;0.57;;
46463;SDS011;32161;48.148;-1.554;2022-08-01T05:56:45;0.90;;;0.80;;
46463;SDS011;32161;48.148;-1.554;2022-08-01T05:59:12;0.90;;;0.40;;
46463;SDS011;32161;48.148;-1.554;2022-08-01T06:01:42;0.50;;;0.50;;
46463;SDS011;32161;48.148;-1.554;2022-08-01T06:04:10;0.43;;;0.43;;
46463;SDS011;32161;48.148;-1.554;2022-08-01T06:06:37;0.50;;;0.43;;
46463;SDS011;32161;48.148;-1.554;2022-08-01T06:09:05;0.70;;;0.70;;
46463;SDS011;32161;48.148;-1.554;2022-08-01T06:11:32;0.55;;;0.40;;
46463;SDS011;32161;48.148;-1.554;2022-08-01T06:14:00;0.35;;;0.25;;
46463;SDS011;32161;48.148;-1.554;2022-08-01T06:16:28;0.68;;;0.60;;
46463;SDS011;32161;48.148;-1.554;2022-08-01T06:18:57;0.57;;;0.32;;
46463;SDS011;32161;48.148;-1.554;2022-08-01T06:21:24;0.43;;;0.43;;
46463;SDS011;32161;48.148;-1.554;2022-08-01T06:23:52;0.40;;;0.35;;
46463;SDS011;32161;48.148;-1.554;2022-08-01T06:26:20;0.40;;;0.38;;
46463;SDS011;32161;48.148;-1.554;2022-08-01T06:28:47;0.40;;;0.30;;
46463;SDS011;32161;48.148;-1.554;2022-08-01T06:31:15;0.43;;;0.30;;
46463;SDS011;32161;48.148;-1.554;2022-08-01T06:33:42;0.40;;;0.40;;
46463;SDS011;32161;48.148;-1.554;2022-08-01T06:36:11;0.47;;;0.47;;
46463;SDS011;32161;48.148;-1.554;2022-08-01T06:38:39;0.40;;;0.40;;
46463;SDS011;32161;48.148;-1.554;2022-08-01T06:41:07;0.68;;;0.40;;
46463;SDS011;32161;48.148;-1.554;2022-08-01T06:43:34;0.60;;;0.32;;
46463;SDS011;32161;48.148;-1.554;2022-08-01T06:46:02;0.40;;;0.40;;
46463;SDS011;32161;48.148;-1.554;2022-08-01T06:48:30;0.40;;;0.35;;
46463;SDS011;32161;48.148;-1.554;2022-08-01T06:50:58;0.35;;;0.35;;
46463;SDS011;32161;48.148;-1.554;2022-08-01T06:53:36;1.13;;;0.50;;
46463;SDS011;32161;48.148;-1.554;2022-08-01T06:56:04;0.57;;;0.22;;
46463;SDS011;32161;48.148;-1.554;2022-08-01T06:58:33;0.57;;;0.30;;
46463;SDS011;32161;48.148;-1.554;2022-08-01T07:01:01;0.20;;;0.20;;
46463;SDS011;32161;48.148;-1.554;2022-08-01T07:03:31;0.25;;;0.25;;
46463;SDS011;32161;48.148;-1.554;2022-08-01T07:05:58;0.40;;;0.30;;
46463;SDS011;32161;48.148;-1.554;2022-08-01T07:08:26;0.20;;;0.20;;
46463;SDS011;32161;48.148;-1.554;2022-08-01T07:10:55;0.43;;;0.30;;
46463;SDS011;32161;48.148;-1.554;2022-08-01T07:13:24;1.27;;;0.30;;
46463;SDS011;32161;48.148;-1.554;2022-08-01T07:15:52;1.30;;;0.20;;
46463;SDS011;32161;48.148;-1.554;2022-08-01T07:18:20;0.55;;;0.30;;
46463;SDS011;32161;48.148;-1.554;2022-08-01T07:20:48;0.20;;;0.20;;
46463;SDS011;32161;48.148;-1.554;2022-08-01T07:23:15;0.20;;;0.20;;
46463;SDS011;32161;48.148;-1.554;2022-08-01T07:25:43;0.17;;;0.17;;
46463;SDS011;32161;48.148;-1.554;2022-08-01T07:28:12;0.85;;;0.30;;
46463;SDS011;32161;48.148;-1.554;2022-08-01T07:30:40;0.77;;;0.30;;
46463;SDS011;32161;48.148;-1.554;2022-08-01T07:33:09;0.20;;;0.20;;
46463;SDS011;32161;48.148;-1.554;2022-08-01T07:35:37;0.40;;;0.20;;
46463;SDS011;32161;48.148;-1.554;2022-08-01T07:38:05;0.20;;;0.20;;
46463;SDS011;32161;48.148;-1.554;2022-08-01T07:40:33;0.10;;;0.10;;
46463;SDS011;32161;48.148;-1.554;2022-08-01T07:43:01;0.25;;;0.25;;
46463;SDS011;32161;48.148;-1.554;2022-08-01T07:45:30;0.20;;;0.20;;
46463;SDS011;32161;48.148;-1.554;2022-08-01T07:48:01;0.20;;;0.20;;
46463;SDS011;32161;48.148;-1.554;2022-08-01T07:50:30;0.20;;;0.20;;
46463;SDS011;32161;48.148;-1.554;2022-08-01T07:52:58;0.17;;;0.17;;
46463;SDS011;32161;48.148;-1.554;2022-08-01T07:55:26;0.40;;;0.28;;
46463;SDS011;32161;48.148;-1.554;2022-08-01T07:57:53;0.68;;;0.30;;
46463;SDS011;32161;48.148;-1.554;2022-08-01T08:00:21;0.52;;;0.52;;
46463;SDS011;32161;48.148;-1.554;2022-08-01T08:02:50;0.40;;;0.35;;
46463;SDS011;32161;48.148;-1.554;2022-08-01T08:05:18;0.27;;;0.27;;
46463;SDS011;32161;48.148;-1.554;2022-08-01T08:07:46;0.63;;;0.57;;
46463;SDS011;32161;48.148;-1.554;2022-08-01T08:10:14;0.63;;;0.40;;
46463;SDS011;32161;48.148;-1.554;2022-08-01T08:12:41;0.50;;;0.50;;
46463;SDS011;32161;48.148;-1.554;2022-08-01T08:15:11;0.55;;;0.55;;
46463;SDS011;32161;48.148;-1.554;2022-08-01T08:17:39;0.68;;;0.68;;
46463;SDS011;32161;48.148;-1.554;2022-08-01T08:20:08;1.45;;;0.60;;
46463;SDS011;32161;48.148;-1.554;2022-08-01T08:22:36;0.52;;;0.52;;
46463;SDS011;32161;48.148;-1.554;2022-08-01T08:25:05;0.60;;;0.60;;
46463;SDS011;32161;48.148;-1.554;2022-08-01T08:27:34;2.22;;;0.60;;
46463;SDS011;32161;48.148;-1.554;2022-08-01T08:30:02;0.63;;;0.60;;
46463;SDS011;32161;48.148;-1.554;2022-08-01T08:32:32;1.03;;;0.90;;
46463;SDS011;32161;48.148;-1.554;2022-08-01T08:35:00;0.80;;;0.80;;
46463;SDS011;32161;48.148;-1.554;2022-08-01T08:37:29;1.95;;;1.20;;
46463;SDS011;32161;48.148;-1.554;2022-08-01T08:39:56;2.38;;;0.82;;
46463;SDS011;32161;48.148;-1.554;2022-08-01T08:42:24;0.60;;;0.60;;
46463;SDS011;32161;48.148;-1.554;2022-08-01T08:44:52;0.98;;;0.98;;
46463;SDS011;32161;48.148;-1.554;2022-08-01T08:47:21;1.00;;;1.00;;
46463;SDS011;32161;48.148;-1.554;2022-08-01T08:49:51;0.90;;;0.90;;
46463;SDS011;32161;48.148;-1.554;2022-08-01T08:54:50;0.82;;;0.75;;
46463;SDS011;32161;48.148;-1.554;2022-08-01T08:57:20;1.75;;;0.80;;
46463;SDS011;32161;48.148;-1.554;2022-08-01T08:59:49;1.58;;;0.60;;
46463;SDS011;32161;48.148;-1.554;2022-08-01T09:02:19;2.17;;;0.90;;
46463;SDS011;32161;48.148;-1.554;2022-08-01T09:04:47;0.65;;;0.50;;
46463;SDS011;32161;48.148;-1.554;2022-08-01T09:07:16;0.65;;;0.57;;
46463;SDS011;32161;48.148;-1.554;2022-08-01T09:09:44;0.60;;;0.60;;
46463;SDS011;32161;48.148;-1.554;2022-08-01T09:12:25;2.63;;;0.80;;
46463;SDS011;32161;48.148;-1.554;2022-08-01T09:15:01;2.25;;;1.08;;
46463;SDS011;32161;48.148;-1.554;2022-08-01T09:17:39;0.85;;;0.85;;
46463;SDS011;32161;48.148;-1.554;2022-08-01T09:20:07;0.90;;;0.90;;
46463;SDS011;32161;48.148;-1.554;2022-08-01T09:22:50;0.77;;;0.77;;
46463;SDS011;32161;48.148;-1.554;2022-08-01T09:25:18;1.45;;;0.70;;
46463;SDS011;32161;48.148;-1.554;2022-08-01T09:27:47;0.57;;;0.57;;
46463;SDS011;32161;48.148;-1.554;2022-08-01T09:30:27;1.65;;;0.80;;
46463;SDS011;32161;48.148;-1.554;2022-08-01T09:33:03;1.95;;;1.30;;
46463;SDS011;32161;48.148;-1.554;2022-08-01T09:35:32;1.35;;;1.05;;
46463;SDS011;32161;48.148;-1.554;2022-08-01T09:38:12;0.80;;;0.80;;
46463;SDS011;32161;48.148;-1.554;2022-08-01T09:40:49;0.93;;;0.93;;
46463;SDS011;32161;48.148;-1.554;2022-08-01T09:43:21;1.02;;;0.95;;
46463;SDS011;32161;48.148;-1.554;2022-08-01T09:45:51;1.15;;;0.98;;
46463;SDS011;32161;48.148;-1.554;2022-08-01T09:48:20;2.10;;;1.27;;
46463;SDS011;32161;48.148;-1.554;2022-08-01T09:50:49;1.30;;;1.02;;
46463;SDS011;32161;48.148;-1.554;2022-08-01T09:53:20;2.75;;;1.13;;
46463;SDS011;32161;48.148;-1.554;2022-08-01T09:55:48;1.38;;;1.00;;
46463;SDS011;32161;48.148;-1.554;2022-08-01T09:58:17;1.10;;;1.10;;
46463;SDS011;32161;48.148;-1.554;2022-08-01T10:00:57;1.48;;;1.20;;
46463;SDS011;32161;48.148;-1.554;2022-08-01T10:03:26;3.83;;;1.00;;
46463;SDS011;32161;48.148;-1.554;2022-08-01T10:05:55;4.60;;;0.95;;
46463;SDS011;32161;48.148;-1.554;2022-08-01T10:08:23;0.95;;;0.70;;
46463;SDS011;32161;48.148;-1.554;2022-08-01T10:13:38;1.02;;;0.90;;
46463;SDS011;32161;48.148;-1.554;2022-08-01T10:16:07;1.40;;;1.15;;
46463;SDS011;32161;48.148;-1.554;2022-08-01T10:18:38;1.45;;;1.45;;
46463;SDS011;32161;48.148;-1.554;2022-08-01T10:21:08;0.90;;;0.90;;
46463;SDS011;32161;48.148;-1.554;2022-08-01T10:23:37;1.00;;;1.00;;
46463;SDS011;32161;48.148;-1.554;2022-08-01T10:26:05;2.47;;;1.15;;
46463;SDS011;32161;48.148;-1.554;2022-08-01T10:28:37;1.25;;;1.13;;
46463;SDS011;32161;48.148;-1.554;2022-08-01T10:31:05;1.50;;;1.08;;
46463;SDS011;32161;48.148;-1.554;2022-08-01T10:33:35;1.13;;;0.90;;
46463;SDS011;32161;48.148;-1.554;2022-08-01T10:36:05;1.10;;;1.10;;
46463;SDS011;32161;48.148;-1.554;2022-08-01T10:38:33;2.05;;;1.35;;
46463;SDS011;32161;48.148;-1.554;2022-08-01T10:41:02;2.33;;;1.27;;
46463;SDS011;32161;48.148;-1.554;2022-08-01T10:43:30;1.55;;;0.93;;
46463;SDS011;32161;48.148;-1.554;2022-08-01T10:45:58;1.15;;;1.15;;
46463;SDS011;32161;48.148;-1.554;2022-08-01T10:48:29;1.45;;;1.30;;
46463;SDS011;32161;48.148;-1.554;2022-08-01T10:51:05;1.30;;;1.20;;
46463;SDS011;32161;48.148;-1.554;2022-08-01T10:53:34;3.50;;;1.30;;
46463;SDS011;32161;48.148;-1.554;2022-08-01T10:56:02;2.40;;;1.13;;
46463;SDS011;32161;48.148;-1.554;2022-08-01T10:58:33;1.10;;;1.10;;
46463;SDS011;32161;48.148;-1.554;2022-08-01T11:01:18;1.13;;;1.10;;
46463;SDS011;32161;48.148;-1.554;2022-08-01T11:04:01;1.42;;;1.33;;
46463;SDS011;32161;48.148;-1.554;2022-08-01T11:09:31;1.02;;;1.00;;
46463;SDS011;32161;48.148;-1.554;2022-08-01T11:12:08;2.30;;;1.17;;
46463;SDS011;32161;48.148;-1.554;2022-08-01T11:17:53;3.40;;;1.58;;
46463;SDS011;32161;48.148;-1.554;2022-08-01T11:20:23;1.60;;;1.50;;
46463;SDS011;32161;48.148;-1.554;2022-08-01T11:28:43;3.15;;;1.80;;
46463;SDS011;32161;48.148;-1.554;2022-08-01T11:31:26;1.10;;;1.10;;
46463;SDS011;32161;48.148;-1.554;2022-08-01T11:33:56;2.50;;;1.45;;
46463;SDS011;32161;48.148;-1.554;2022-08-01T11:36:27;0.95;;;0.95;;
46463;SDS011;32161;48.148;-1.554;2022-08-01T11:39:12;1.77;;;1.05;;
46463;SDS011;32161;48.148;-1.554;2022-08-01T11:41:43;2.83;;;1.10;;
46463;SDS011;32161;48.148;-1.554;2022-08-01T11:44:15;1.30;;;1.20;;
46463;SDS011;32161;48.148;-1.554;2022-08-01T11:49:33;1.17;;;1.15;;
46463;SDS011;32161;48.148;-1.554;2022-08-01T11:52:16;1.45;;;1.35;;
46463;SDS011;32161;48.148;-1.554;2022-08-01T11:54:46;1.20;;;1.08;;
46463;SDS011;32161;48.148;-1.554;2022-08-01T11:57:17;2.57;;;1.47;;
46463;SDS011;32161;48.148;-1.554;2022-08-01T12:02:16;1.55;;;1.45;;
46463;SDS011;32161;48.148;-1.554;2022-08-01T12:04:52;1.67;;;1.35;;
46463;SDS011;32161;48.148;-1.554;2022-08-01T12:07:24;1.33;;;0.90;;
46463;SDS011;32161;48.148;-1.554;2022-08-01T12:10:00;1.58;;;1.27;;
46463;SDS011;32161;48.148;-1.554;2022-08-01T12:12:32;1.30;;;1.20;;
46463;SDS011;32161;48.148;-1.554;2022-08-01T12:15:03;2.28;;;1.45;;
46463;SDS011;32161;48.148;-1.554;2022-08-01T12:17:35;1.85;;;1.42;;
46463;SDS011;32161;48.148;-1.554;2022-08-01T12:20:06;1.40;;;1.27;;
46463;SDS011;32161;48.148;-1.554;2022-08-01T12:22:37;1.27;;;1.20;;
46463;SDS011;32161;48.148;-1.554;2022-08-01T12:25:05;1.00;;;1.00;;
46463;SDS011;32161;48.148;-1.554;2022-08-01T12:27:35;3.65;;;1.30;;
46463;SDS011;32161;48.148;-1.554;2022-08-01T12:30:05;2.60;;;1.58;;
46463;SDS011;32161;48.148;-1.554;2022-08-01T12:32:36;1.63;;;1.30;;
46463;SDS011;32161;48.148;-1.554;2022-08-01T12:35:09;2.63;;;1.30;;
46463;SDS011;32161;48.148;-1.554;2022-08-01T12:37:41;1.10;;;1.10;;
46463;SDS011;32161;48.148;-1.554;2022-08-01T12:40:14;1.48;;;1.15;;
46463;SDS011;32161;48.148;-1.554;2022-08-01T12:42:45;1.45;;;1.20;;
46463;SDS011;32161;48.148;-1.554;2022-08-01T12:45:30;6.65;;;1.35;;
46463;SDS011;32161;48.148;-1.554;2022-08-01T12:48:11;2.53;;;1.20;;
46463;SDS011;32161;48.148;-1.554;2022-08-01T12:50:45;1.50;;;1.05;;
46463;SDS011;32161;48.148;-1.554;2022-08-01T12:53:23;0.90;;;0.90;;
46463;SDS011;32161;48.148;-1.554;2022-08-01T12:55:54;1.00;;;1.00;;
46463;SDS011;32161;48.148;-1.554;2022-08-01T12:58:30;1.65;;;0.80;;
46463;SDS011;32161;48.148;-1.554;2022-08-01T13:01:04;1.02;;;1.02;;
46463;SDS011;32161;48.148;-1.554;2022-08-01T13:03:35;1.00;;;1.00;;
46463;SDS011;32161;48.148;-1.554;2022-08-01T13:06:09;1.88;;;1.15;;
46463;SDS011;32161;48.148;-1.554;2022-08-01T13:08:40;1.10;;;1.10;;
46463;SDS011;32161;48.148;-1.554;2022-08-01T13:11:09;1.95;;;1.23;;
46463;SDS011;32161;48.148;-1.554;2022-08-01T13:13:40;3.10;;;1.38;;
46463;SDS011;32161;48.148;-1.554;2022-08-01T13:16:12;1.65;;;1.25;;
46463;SDS011;32161;48.148;-1.554;2022-08-01T13:18:40;2.92;;;1.30;;
46463;SDS011;32161;48.148;-1.554;2022-08-01T13:21:16;1.95;;;1.20;;
46463;SDS011;32161;48.148;-1.554;2022-08-01T13:24:00;1.10;;;1.10;;
46463;SDS011;32161;48.148;-1.554;2022-08-01T13:26:39;1.00;;;1.00;;
46463;SDS011;32161;48.148;-1.554;2022-08-01T13:29:09;1.77;;;1.33;;
46463;SDS011;32161;48.148;-1.554;2022-08-01T13:31:39;2.95;;;1.50;;
46463;SDS011;32161;48.148;-1.554;2022-08-01T13:34:07;3.03;;;1.40;;
46463;SDS011;32161;48.148;-1.554;2022-08-01T13:36:35;1.70;;;1.40;;
46463;SDS011;32161;48.148;-1.554;2022-08-01T13:39:05;6.53;;;1.77;;
46463;SDS011;32161;48.148;-1.554;2022-08-01T13:41:50;1.42;;;1.25;;
46463;SDS011;32161;48.148;-1.554;2022-08-01T13:44:18;1.40;;;1.40;;
46463;SDS011;32161;48.148;-1.554;2022-08-01T13:46:46;1.70;;;1.17;;
46463;SDS011;32161;48.148;-1.554;2022-08-01T13:49:14;4.68;;;1.23;;
46463;SDS011;32161;48.148;-1.554;2022-08-01T13:51:41;2.53;;;1.73;;
46463;SDS011;32161;48.148;-1.554;2022-08-01T13:54:12;1.15;;;1.05;;
46463;SDS011;32161;48.148;-1.554;2022-08-01T13:56:39;1.60;;;1.40;;
46463;SDS011;32161;48.148;-1.554;2022-08-01T13:59:07;2.05;;;1.40;;
46463;SDS011;32161;48.148;-1.554;2022-08-01T14:01:35;3.35;;;1.40;;
46463;SDS011;32161;48.148;-1.554;2022-08-01T14:04:03;3.35;;;1.50;;
46463;SDS011;32161;48.148;-1.554;2022-08-01T14:06:31;2.28;;;1.20;;
46463;SDS011;32161;48.148;-1.554;2022-08-01T14:09:00;1.75;;;1.27;;
46463;SDS011;32161;48.148;-1.554;2022-08-01T14:11:29;1.25;;;1.17;;
46463;SDS011;32161;48.148;-1.554;2022-08-01T14:13:57;3.30;;;1.35;;
46463;SDS011;32161;48.148;-1.554;2022-08-01T14:16:24;1.30;;;1.30;;
46463;SDS011;32161;48.148;-1.554;2022-08-01T14:18:52;1.98;;;1.00;;
46463;SDS011;32161;48.148;-1.554;2022-08-01T14:21:20;3.95;;;1.25;;
46463;SDS011;32161;48.148;-1.554;2022-08-01T14:23:47;1.42;;;1.33;;
46463;SDS011;32161;48.148;-1.554;2022-08-01T14:26:15;1.92;;;1.52;;
46463;SDS011;32161;48.148;-1.554;2022-08-01T14:28:44;1.30;;;1.20;;
46463;SDS011;32161;48.148;-1.554;2022-08-01T14:31:11;1.15;;;1.05;;
46463;SDS011;32161;48.148;-1.554;2022-08-01T14:33:39;2.40;;;1.15;;
46463;SDS011;32161;48.148;-1.554;2022-08-01T14:36:07;1.77;;;1.00;;
46463;SDS011;32161;48.148;-1.554;2022-08-01T14:38:34;1.08;;;1.08;;
46463;SDS011;32161;48.148;-1.554;2022-08-01T14:41:02;2.22;;;0.98;;
46463;SDS011;32161;48.148;-1.554;2022-08-01T14:43:30;2.60;;;1.35;;
46463;SDS011;32161;48.148;-1.554;2022-08-01T14:45:59;1.52;;;1.13;;
46463;SDS011;32161;48.148;-1.554;2022-08-01T14:50:55;1.73;;;1.15;;
46463;SDS011;32161;48.148;-1.554;2022-08-01T14:53:24;1.52;;;1.10;;
46463;SDS011;32161;48.148;-1.554;2022-08-01T14:55:51;1.55;;;0.95;;
46463;SDS011;32161;48.148;-1.554;2022-08-01T14:58:19;1.33;;;1.05;;
46463;SDS011;32161;48.148;-1.554;2022-08-01T15:00:47;3.45;;;1.33;;
46463;SDS011;32161;48.148;-1.554;2022-08-01T15:03:21;2.05;;;0.90;;
46463;SDS011;32161;48.148;-1.554;2022-08-01T15:05:48;1.55;;;1.20;;
46463;SDS011;32161;48.148;-1.554;2022-08-01T15:08:16;2.13;;;1.35;;
46463;SDS011;32161;48.148;-1.554;2022-08-01T15:10:44;0.90;;;0.90;;
46463;SDS011;32161;48.148;-1.554;2022-08-01T15:13:11;2.78;;;1.00;;
46463;SDS011;32161;48.148;-1.554;2022-08-01T15:15:39;1.98;;;1.30;;
46463;SDS011;32161;48.148;-1.554;2022-08-01T15:18:07;1.75;;;0.80;;
46463;SDS011;32161;48.148;-1.554;2022-08-01T15:20:36;1.83;;;1.15;;
46463;SDS011;32161;48.148;-1.554;2022-08-01T15:23:04;1.02;;;1.02;;
46463;SDS011;32161;48.148;-1.554;2022-08-01T15:25:32;1.23;;;1.23;;
46463;SDS011;32161;48.148;-1.554;2022-08-01T15:28:00;1.00;;;1.00;;